Time,TemperatureF,DewpointF,PressureIn,WindDirection,WindDirectionDegrees,WindSpeedMPH,WindSpeedGustMPH,Humidity,HourlyPrecipIn,Conditions,Clouds,dailyrainin,SoftwareType,DateUTC
2013-10-26 00:08:00,38.3,30.0,30.18,SSW,203,2.0,7.0,71,0.00,,,0.00,weatherlink.com 1.10,2013-10-26 04:08:00,
2013-10-26 00:23:00,38.2,30.0,30.18,WSW,240,1.0,4.0,72,0.00,,,0.00,weatherlink.com 1.10,2013-10-26 04:23:00,
2013-10-26 00:38:00,38.3,30.0,30.17,East,97,1.0,5.0,72,0.00,,,0.00,weatherlink.com 1.10,2013-10-26 04:38:00,
2013-10-26 00:53:00,38.4,30.0,30.16,WSW,238,1.0,3.0,71,0.00,,,0.00,weatherlink.com 1.10,2013-10-26 04:53:00,
2013-10-26 01:08:00,38.8,30.0,30.16,WSW,239,0.0,6.0,72,0.00,,,0.00,weatherlink.com 1.10,2013-10-26 05:08:00,
2013-10-26 01:23:00,38.8,30.0,30.15,SW,233,1.0,4.0,70,0.00,,,0.00,weatherlink.com 1.10,2013-10-26 05:23:00,
2013-10-26 01:38:00,38.7,30.0,30.15,WSW,254,0.0,4.0,71,0.00,,,0.00,weatherlink.com 1.10,2013-10-26 05:38:00,
2013-10-26 01:53:00,38.4,30.0,30.14,SW,232,0.0,4.0,71,0.00,,,0.00,weatherlink.com 1.10,2013-10-26 05:53:00,
2013-10-26 02:08:00,38.1,29.0,30.13,SW,223,0.0,4.0,71,0.00,,,0.00,weatherlink.com 1.10,2013-10-26 06:08:00,
2013-10-26 02:23:00,38.0,30.0,30.12,WSW,244,0.0,4.0,72,0.00,,,0.00,weatherlink.com 1.10,2013-10-26 06:23:00,
2013-10-26 02:38:00,38.1,29.0,30.11,NE,38,2.0,4.0,71,0.00,,,0.00,weatherlink.com 1.10,2013-10-26 06:38:00,
2013-10-26 02:53:00,38.7,29.0,30.11,WNW,289,5.0,6.0,69,0.00,,,0.00,weatherlink.com 1.10,2013-10-26 06:53:00,
2013-10-26 03:09:00,38.6,30.0,30.10,SW,232,1.0,6.0,71,0.00,,,0.00,weatherlink.com 1.10,2013-10-26 07:09:00,
2013-10-26 03:24:00,38.9,29.0,30.09,WSW,247,1.0,7.0,69,0.00,,,0.00,weatherlink.com 1.10,2013-10-26 07:24:00,
2013-10-26 03:39:00,39.1,30.0,30.08,SE,135,2.0,6.0,69,0.00,,,0.00,weatherlink.com 1.10,2013-10-26 07:39:00,
2013-10-26 03:54:00,39.2,30.0,30.08,South,184,1.0,5.0,70,0.00,,,0.00,weatherlink.com 1.10,2013-10-26 07:54:00,
2013-10-26 04:09:00,39.5,30.0,30.08,WSW,238,0.0,6.0,68,0.00,,,0.00,weatherlink.com 1.10,2013-10-26 08:09:00,
2013-10-26 04:24:00,39.5,30.0,30.07,South,169,1.0,5.0,69,0.00,,,0.00,weatherlink.com 1.10,2013-10-26 08:24:00,
2013-10-26 04:39:00,39.5,30.0,30.06,SW,236,4.0,6.0,68,0.00,,,0.00,weatherlink.com 1.10,2013-10-26 08:39:00,
2013-10-26 04:54:00,39.6,30.0,30.05,SW,229,1.0,6.0,69,0.00,,,0.00,weatherlink.com 1.10,2013-10-26 08:54:00,
2013-10-26 05:09:00,39.7,30.0,30.04,SW,225,1.0,6.0,68,0.00,,,0.00,weatherlink.com 1.10,2013-10-26 09:09:00,
2013-10-26 05:24:00,39.8,30.0,30.03,SSE,163,2.0,7.0,67,0.00,,,0.00,weatherlink.com 1.10,2013-10-26 09:24:00,
2013-10-26 05:39:00,39.9,29.0,30.03,WSW,242,2.0,5.0,66,0.00,,,0.00,weatherlink.com 1.10,2013-10-26 09:39:00,
2013-10-26 05:54:00,40.0,30.0,30.03,SW,225,2.0,7.0,67,0.00,,,0.00,weatherlink.com 1.10,2013-10-26 09:54:00,
2013-10-26 06:09:00,40.0,29.0,30.01,WSW,242,3.0,5.0,66,0.00,,,0.00,weatherlink.com 1.10,2013-10-26 10:09:00,
2013-10-26 06:24:00,40.0,29.0,30.01,WSW,244,2.0,9.0,66,0.00,,,0.00,weatherlink.com 1.10,2013-10-26 10:24:00,
2013-10-26 06:39:00,40.1,29.0,30.00,SW,217,1.0,5.0,66,0.00,,,0.00,weatherlink.com 1.10,2013-10-26 10:39:00,
2013-10-26 06:54:00,40.2,30.0,30.00,SW,234,2.0,6.0,66,0.00,,,0.00,weatherlink.com 1.10,2013-10-26 10:54:00,
2013-10-26 07:09:00,40.2,30.0,29.98,NNE,15,1.0,5.0,68,0.00,,,0.00,weatherlink.com 1.10,2013-10-26 11:09:00,
2013-10-26 07:24:00,40.2,30.0,29.97,SW,221,3.0,8.0,67,0.00,,,0.00,weatherlink.com 1.10,2013-10-26 11:24:00,
2013-10-26 07:39:00,40.2,30.0,29.96,SW,220,1.0,6.0,68,0.00,,,0.00,weatherlink.com 1.10,2013-10-26 11:39:00,
2013-10-26 07:54:00,40.2,30.0,29.96,SSW,206,1.0,6.0,67,0.00,,,0.00,weatherlink.com 1.10,2013-10-26 11:54:00,
2013-10-26 08:09:00,40.4,30.0,29.95,West,270,2.0,8.0,66,0.00,,,0.00,weatherlink.com 1.10,2013-10-26 12:09:00,
2013-10-26 08:24:00,40.4,30.0,29.95,WSW,242,2.0,6.0,67,0.00,,,0.00,weatherlink.com 1.10,2013-10-26 12:24:00,
2013-10-26 08:39:00,40.7,30.0,29.94,SW,232,3.0,5.0,67,0.00,,,0.00,weatherlink.com 1.10,2013-10-26 12:39:00,
2013-10-26 08:54:00,40.7,31.0,29.94,SW,229,2.0,5.0,68,0.00,,,0.00,weatherlink.com 1.10,2013-10-26 12:54:00,
2013-10-26 09:09:00,40.8,31.0,29.94,SW,222,3.0,6.0,67,0.00,,,0.00,weatherlink.com 1.10,2013-10-26 13:09:00,
2013-10-26 09:24:00,40.9,31.0,29.94,WSW,257,3.0,7.0,69,0.00,,,0.00,weatherlink.com 1.10,2013-10-26 13:24:00,
2013-10-26 09:39:00,41.3,31.0,29.94,SSW,208,1.0,6.0,68,0.00,,,0.00,weatherlink.com 1.10,2013-10-26 13:39:00,
2013-10-26 09:54:00,41.6,32.0,29.93,West,273,3.0,12.0,69,0.00,,,0.00,weatherlink.com 1.10,2013-10-26 13:54:00,
2013-10-26 10:10:00,41.9,32.0,29.93,West,259,4.0,5.0,68,0.00,,,0.00,weatherlink.com 1.10,2013-10-26 14:10:00,
2013-10-26 10:25:00,42.3,32.0,29.90,SW,219,1.0,8.0,67,0.00,,,0.00,weatherlink.com 1.10,2013-10-26 14:25:00,
2013-10-26 10:40:00,42.7,33.0,29.90,NE,38,2.0,7.0,69,0.00,,,0.00,weatherlink.com 1.10,2013-10-26 14:40:00,
2013-10-26 10:55:00,43.2,34.0,29.90,WNW,297,5.0,8.0,69,0.00,,,0.00,weatherlink.com 1.10,2013-10-26 14:55:00,
2013-10-26 11:10:00,44.0,34.0,29.89,West,271,2.0,6.0,69,0.00,,,0.00,weatherlink.com 1.10,2013-10-26 15:10:00,
2013-10-26 11:25:00,45.5,35.0,29.89,SW,231,8.0,9.0,66,0.00,,,0.00,weatherlink.com 1.10,2013-10-26 15:25:00,
2013-10-26 11:40:00,46.0,36.0,29.89,SW,217,1.0,7.0,67,0.00,,,0.00,weatherlink.com 1.10,2013-10-26 15:40:00,
2013-10-26 11:55:00,46.5,36.0,29.89,WNW,292,1.0,10.0,67,0.00,,,0.00,weatherlink.com 1.10,2013-10-26 15:55:00,
2013-10-26 12:10:00,46.5,36.0,29.88,SW,221,5.0,9.0,66,0.00,,,0.00,weatherlink.com 1.10,2013-10-26 16:10:00,
2013-10-26 12:25:00,46.5,36.0,29.88,SW,216,1.0,7.0,66,0.00,,,0.00,weatherlink.com 1.10,2013-10-26 16:25:00,
2013-10-26 12:40:00,47.2,36.0,29.88,SW,233,3.0,8.0,66,0.00,,,0.00,weatherlink.com 1.10,2013-10-26 16:40:00,
2013-10-26 12:55:00,49.0,38.0,29.87,West,260,7.0,7.0,65,0.00,,,0.00,weatherlink.com 1.10,2013-10-26 16:55:00,
2013-10-26 13:10:00,48.8,38.0,29.87,WSW,238,7.0,9.0,66,0.00,,,0.00,weatherlink.com 1.10,2013-10-26 17:10:00,
2013-10-26 13:25:00,51.3,38.0,29.87,West,281,5.0,9.0,61,0.00,,,0.00,weatherlink.com 1.10,2013-10-26 17:25:00,
2013-10-26 13:40:00,52.3,39.0,29.86,WSW,246,5.0,15.0,60,0.00,,,0.00,weatherlink.com 1.10,2013-10-26 17:40:00,
2013-10-26 13:55:00,51.4,38.0,29.86,West,274,2.0,13.0,61,0.00,,,0.00,weatherlink.com 1.10,2013-10-26 17:55:00,
2013-10-26 14:10:00,52.1,38.0,29.86,West,273,4.0,15.0,60,0.00,,,0.00,weatherlink.com 1.10,2013-10-26 18:10:00,
2013-10-26 14:25:00,51.3,39.0,29.85,WSW,238,4.0,19.0,63,0.00,,,0.00,weatherlink.com 1.10,2013-10-26 18:25:00,
2013-10-26 14:40:00,52.0,40.0,29.85,SW,221,4.0,10.0,63,0.00,,,0.00,weatherlink.com 1.10,2013-10-26 18:40:00,
2013-10-26 14:55:00,52.3,40.0,29.85,WSW,257,6.0,13.0,63,0.00,,,0.00,weatherlink.com 1.10,2013-10-26 18:55:00,
2013-10-26 15:10:00,52.5,40.0,29.85,WSW,240,4.0,9.0,63,0.00,,,0.00,weatherlink.com 1.10,2013-10-26 19:10:00,
2013-10-26 15:25:00,52.7,40.0,29.85,WNW,296,4.0,11.0,62,0.00,,,0.00,weatherlink.com 1.10,2013-10-26 19:25:00,
2013-10-26 15:40:00,53.0,40.0,29.86,WNW,287,5.0,18.0,61,0.00,,,0.00,weatherlink.com 1.10,2013-10-26 19:40:00,
2013-10-26 15:55:00,53.3,40.0,29.87,North,355,10.0,16.0,61,0.00,,,0.00,weatherlink.com 1.10,2013-10-26 19:55:00,
2013-10-26 16:10:00,54.3,38.0,29.87,West,280,10.0,15.0,55,0.00,,,0.00,weatherlink.com 1.10,2013-10-26 20:10:00,
2013-10-26 16:25:00,52.5,39.0,29.89,NW,316,3.0,12.0,60,0.00,,,0.00,weatherlink.com 1.10,2013-10-26 20:25:00,
2013-10-26 16:40:00,51.5,39.0,29.89,West,279,4.0,10.0,63,0.00,,,0.00,weatherlink.com 1.10,2013-10-26 20:40:00,
2013-10-26 16:55:00,51.0,39.0,29.90,NNE,18,7.0,14.0,64,0.00,,,0.00,weatherlink.com 1.10,2013-10-26 20:55:00,
2013-10-26 17:10:00,51.4,39.0,29.91,NW,307,11.0,13.0,64,0.00,,,0.00,weatherlink.com 1.10,2013-10-26 21:10:00,
2013-10-26 17:25:00,50.9,40.0,29.91,West,280,7.0,8.0,66,0.00,,,0.00,weatherlink.com 1.10,2013-10-26 21:25:00,
2013-10-26 17:40:00,50.6,38.0,29.91,WNW,297,2.0,12.0,63,0.00,,,0.00,weatherlink.com 1.10,2013-10-26 21:40:00,
2013-10-26 17:55:00,50.4,38.0,29.92,WNW,292,2.0,9.0,63,0.00,,,0.00,weatherlink.com 1.10,2013-10-26 21:55:00,
2013-10-26 18:10:00,50.2,38.0,29.93,NW,311,3.0,12.0,63,0.00,,,0.00,weatherlink.com 1.10,2013-10-26 22:10:00,
2013-10-26 18:25:00,49.8,38.0,29.94,WNW,284,3.0,13.0,65,0.00,,,0.00,weatherlink.com 1.10,2013-10-26 22:25:00,
2013-10-26 18:40:00,48.6,39.0,29.96,WNW,290,4.0,12.0,69,0.00,,,0.00,weatherlink.com 1.10,2013-10-26 22:40:00,
2013-10-26 18:55:00,47.4,39.0,29.96,WNW,293,3.0,12.0,73,0.00,,,0.00,weatherlink.com 1.10,2013-10-26 22:55:00,
2013-10-26 19:10:00,47.3,39.0,29.97,West,281,4.0,12.0,73,0.00,,,0.00,weatherlink.com 1.10,2013-10-26 23:10:00,
2013-10-26 19:25:00,47.2,39.0,29.98,North,351,5.0,9.0,73,0.00,,,0.00,weatherlink.com 1.10,2013-10-26 23:25:00,
2013-10-26 19:40:00,47.0,39.0,29.99,SW,218,3.0,10.0,73,0.00,,,0.00,weatherlink.com 1.10,2013-10-26 23:40:00,
2013-10-26 19:55:00,46.8,39.0,29.99,WNW,294,3.0,6.0,74,0.00,,,0.00,weatherlink.com 1.10,2013-10-26 23:55:00,
2013-10-26 20:10:00,46.3,38.0,30.00,WNW,299,2.0,7.0,74,0.00,,,0.00,weatherlink.com 1.10,2013-10-27 00:10:00,
2013-10-26 20:25:00,45.9,38.0,30.00,WNW,301,2.0,7.0,74,0.00,,,0.00,weatherlink.com 1.10,2013-10-27 00:25:00,
2013-10-26 20:40:00,45.6,38.0,30.01,WNW,286,2.0,5.0,74,0.00,,,0.00,weatherlink.com 1.10,2013-10-27 00:40:00,
2013-10-26 20:55:00,45.2,38.0,30.01,WNW,283,4.0,6.0,75,0.00,,,0.00,weatherlink.com 1.10,2013-10-27 00:55:00,
2013-10-26 21:10:00,44.5,37.0,30.02,WNW,285,2.0,4.0,76,0.00,,,0.00,weatherlink.com 1.10,2013-10-27 01:10:00,
2013-10-26 21:25:00,43.8,37.0,30.03,West,271,3.0,6.0,77,0.00,,,0.00,weatherlink.com 1.10,2013-10-27 01:25:00,
2013-10-26 21:41:00,43.4,38.0,30.03,WNW,287,0.0,4.0,80,0.00,,,0.00,weatherlink.com 1.10,2013-10-27 01:41:00,
2013-10-26 21:56:00,42.9,37.0,30.03,West,261,0.0,3.0,79,0.00,,,0.00,weatherlink.com 1.10,2013-10-27 01:56:00,
2013-10-26 22:11:00,42.0,37.0,30.04,West,261,0.0,0.0,81,0.00,,,0.00,weatherlink.com 1.10,2013-10-27 02:11:00,
2013-10-26 22:26:00,41.1,36.0,30.04,West,261,0.0,0.0,83,0.00,,,0.00,weatherlink.com 1.10,2013-10-27 02:26:00,
2013-10-26 22:41:00,40.6,37.0,30.05,West,261,0.0,0.0,85,0.00,,,0.00,weatherlink.com 1.10,2013-10-27 02:41:00,
2013-10-26 22:56:00,40.1,36.0,30.05,West,261,0.0,0.0,86,0.00,,,0.00,weatherlink.com 1.10,2013-10-27 02:56:00,
2013-10-26 23:11:00,40.0,37.0,30.05,West,261,0.0,1.0,88,0.00,,,0.00,weatherlink.com 1.10,2013-10-27 03:11:00,
2013-10-26 23:26:00,40.0,37.0,30.05,West,261,0.0,0.0,87,0.00,,,0.00,weatherlink.com 1.10,2013-10-27 03:26:00,
2013-10-26 23:41:00,39.4,37.0,30.06,West,261,0.0,0.0,89,0.00,,,0.00,weatherlink.com 1.10,2013-10-27 03:41:00,
2013-10-26 23:56:00,38.9,36.0,30.06,West,261,0.0,1.0,89,0.00,,,0.00,weatherlink.com 1.10,2013-10-27 03:56:00,